Time;durP1;ratioP1;P1;durP2;ratioP2;P2;SDS_P1;SDS_P2;PMS_P1;PMS_P2;Temp;Humidity;BMP_temperature;BMP_pressure;BME280_temperature;BME280_humidity;BME280_pressure;Samples;Min_cycle;Max_cycle;Signal;HPM_P1;HPM_P2
2022/09/05 00:00:10;;;;;;;6.43;3.25;;;;;;;19.69;63.79;100235.56;3139471;28;20552;-64
2022/09/05 00:02:08;;;;;;;5.82;3.72;;;;;;;19.72;64.00;100239.75;3135469;28;20060;-64
2022/09/05 00:03:47;;;;;;;6.28;3.47;;;;;;;19.69;64.07;100246.13;3140081;28;20055;-65
2022/09/05 00:05:34;;;;;;;6.25;3.35;;;;;;;19.74;63.99;100241.34;3140166;28;20821;-64
2022/09/05 00:07:14;;;;;;;5.40;3.00;;;;;;;19.71;64.20;100252.13;3140005;28;20083;-64
2022/09/05 00:09:00;;;;;;;7.95;3.13;;;;;;;19.72;64.01;100247.69;3140044;28;20515;-65
2022/09/05 00:10:41;;;;;;;7.38;3.03;;;;;;;19.75;64.15;100258.84;3138157;28;20058;-64
2022/09/05 00:12:14;;;;;;;8.20;3.80;;;;;;;19.75;64.42;100258.84;3138071;28;20576;-64
2022/09/05 00:13:56;;;;;;;5.65;3.17;;;;;;;19.75;64.45;100265.94;3136981;28;20532;-65
2022/09/05 00:15:37;;;;;;;6.47;3.47;;;;;;;19.70;64.59;100268.97;3136562;28;20067;-65
2022/09/05 00:17:20;;;;;;;7.15;3.70;;;;;;;19.75;64.56;100265.94;3140039;28;20277;-65
2022/09/05 00:19:01;;;;;;;6.00;3.58;;;;;;;19.73;64.53;100275.81;3140193;28;20056;-65
2022/09/05 00:20:42;;;;;;;8.10;3.00;;;;;;;19.70;64.36;100266.31;3140049;28;20418;-64
2022/09/05 00:22:29;;;;;;;7.40;3.25;;;;;;;19.72;64.61;100274.13;3140215;28;20056;-65
2022/09/05 00:24:17;;;;;;;4.38;3.17;;;;;;;19.69;64.71;100283.09;3139707;28;20510;-66
2022/09/05 00:26:01;;;;;;;8.27;3.40;;;;;;;19.71;64.59;100278.56;3140247;28;20457;-66
2022/09/05 00:27:44;;;;;;;8.02;3.38;;;;;;;19.70;64.94;100278.66;3139970;28;20048;-66
2022/09/05 00:29:31;;;;;;;5.80;3.30;;;;;;;19.70;64.87;100281.31;3142035;28;20062;-66
2022/09/05 00:31:25;;;;;;;11.20;3.67;;;;;;;19.69;65.12;100280.47;3139917;28;20052;-66
2022/09/05 00:33:23;;;;;;;4.88;2.80;;;;;;;19.61;65.54;100280.19;3140020;28;20053;-66
2022/09/05 00:35:06;;;;;;;8.18;3.42;;;;;;;19.61;65.63;100277.56;3139953;28;20109;-66
2022/09/05 00:36:45;;;;;;;6.43;3.67;;;;;;;19.60;65.84;100278.50;3139603;28;20060;-64
2022/09/05 00:38:17;;;;;;;4.70;2.72;;;;;;;19.61;65.71;100269.63;3140251;28;20060;-67
2022/09/05 00:39:51;;;;;;;4.90;2.85;;;;;;;19.62;65.40;100267.81;3140277;28;20056;-66
2022/09/05 00:41:23;;;;;;;;;;;;;;;19.62;65.37;100268.66;3140509;28;20155;-66
2022/09/05 00:42:57;;;;;;;7.05;3.50;;;;;;;19.60;65.74;100267.09;3140101;28;19930;-67
2022/09/05 00:44:33;;;;;;;6.63;3.42;;;;;;;19.55;65.60;100268.28;3139867;28;20746;-66
2022/09/05 00:46:09;;;;;;;9.10;3.22;;;;;;;19.59;65.72;100268.91;3139508;28;20428;-65
2022/09/05 00:47:46;;;;;;;5.80;3.30;;;;;;;19.50;66.24;100259.03;3139874;28;20048;-64
2022/09/05 00:49:24;;;;;;;8.07;3.30;;;;;;;19.57;66.22;100269.97;3139977;28;20525;-64
2022/09/05 00:51:19;;;;;;;7.35;3.47;;;;;;;19.56;66.45;100263.84;3139922;28;20049;-64
2022/09/05 00:52:56;;;;;;;5.13;3.25;;;;;;;19.53;66.48;100266.72;3139607;28;20072;-65
2022/09/05 00:54:50;;;;;;;5.85;3.72;;;;;;;19.56;66.53;100266.47;3139941;28;20071;-65
2022/09/05 00:56:34;;;;;;;;;;;;;;;19.49;66.64;100259.97;3139884;28;20084;-65
2022/09/05 00:58:19;;;;;;;6.22;3.80;;;;;;;19.46;66.85;100266.34;3133651;28;19924;-65
2022/09/05 01:00:04;;;;;;;8.05;3.38;;;;;;;19.47;66.97;100259.25;3134520;28;20136;-65
2022/09/05 01:01:44;;;;;;;7.78;4.65;;;;;;;19.42;67.35;100261.38;3139465;28;20122;-65
2022/09/05 01:03:29;;;;;;;5.82;3.70;;;;;;;19.38;67.46;100255.50;3139800;28;20056;-65
2022/09/05 01:05:06;;;;;;;8.60;3.08;;;;;;;19.43;67.39;100258.66;3139414;28;20079;-65
2022/09/05 01:06:55;;;;;;;10.63;4.38;;;;;;;19.37;67.42;100253.78;3139606;28;20087;-65
2022/09/05 01:08:45;;;;;;;8.50;3.70;;;;;;;19.39;67.28;100257.16;3139518;28;20063;-65
2022/09/05 01:10:25;;;;;;;13.23;3.53;;;;;;;19.41;67.23;100254.44;3139985;28;20106;-65
2022/09/05 01:12:08;;;;;;;9.45;3.58;;;;;;;19.35;67.59;100255.72;3139794;28;20521;-65
2022/09/05 01:13:46;;;;;;;5.18;3.60;;;;;;;19.30;67.69;100256.06;3140006;28;20106;-65
2022/09/05 01:15:26;;;;;;;6.60;3.45;;;;;;;19.30;67.81;100253.41;3138940;28;20131;-65
2022/09/05 01:17:10;;;;;;;4.57;3.22;;;;;;;19.27;68.03;100258.09;3139517;28;20049;-65
2022/09/05 01:19:04;;;;;;;8.52;3.55;;;;;;;19.27;67.90;100258.09;3139698;28;20057;-66
2022/09/05 01:21:01;;;;;;;6.13;3.85;;;;;;;19.27;67.94;100260.72;3136554;28;20052;-65
2022/09/05 01:22:59;;;;;;;5.82;3.63;;;;;;;19.25;67.93;100250.25;3139615;28;20054;-66
2022/09/05 01:24:53;;;;;;;8.40;3.55;;;;;;;19.23;68.02;100257.47;3134970;28;20056;-65
2022/09/05 01:27:07;;;;;;;7.40;3.58;;;;;;;19.25;68.07;100255.53;3139759;28;20084;-65
2022/09/05 01:28:47;;;;;;;4.60;3.20;;;;;;;19.25;67.90;100260.81;3129963;28;20126;-66
2022/09/05 01:30:21;;;;;;;4.43;3.25;;;;;;;19.29;67.76;100257.03;3139633;28;20281;-65
2022/09/05 01:32:09;;;;;;;9.52;3.58;;;;;;;19.28;67.85;100257.97;3139521;28;20156;-65
2022/09/05 01:33:52;;;;;;;8.27;3.60;;;;;;;19.23;68.30;100248.72;3139777;28;20080;-65
2022/09/05 01:35:53;;;;;;;8.52;4.07;;;;;;;19.23;67.98;100260.13;3139846;28;20048;-65
2022/09/05 01:37:32;;;;;;;4.75;3.00;;;;;;;19.25;67.89;100260.81;3112009;28;20048;-65
2022/09/05 01:39:11;;;;;;;8.20;3.80;;;;;;;19.23;67.99;100265.41;3139575;28;20500;-66
2022/09/05 01:40:53;;;;;;;5.72;3.63;;;;;;;19.21;68.17;100259.38;3133842;28;20626;-66
2022/09/05 01:42:37;;;;;;;6.97;3.45;;;;;;;19.23;68.13;100260.13;3134100;28;20056;-66
2022/09/05 01:44:27;;;;;;;5.32;3.58;;;;;;;19.23;68.19;100267.22;3134226;28;20153;-64
2022/09/05 01:46:09;;;;;;;8.25;3.65;;;;;;;19.20;68.30;100263.00;3139200;28;20055;-64
2022/09/05 01:47:50;;;;;;;6.82;3.28;;;;;;;19.21;68.16;100261.19;3139560;28;20049;-65
2022/09/05 01:49:33;;;;;;;10.27;3.80;;;;;;;19.21;68.24;100253.25;3139476;28;20106;-65
2022/09/05 01:51:19;;;;;;;7.53;3.58;;;;;;;19.21;68.37;100262.03;3139176;28;20362;-64
2022/09/05 01:53:06;;;;;;;8.52;3.30;;;;;;;19.18;68.30;100254.31;3140604;28;20325;-63
2022/09/05 01:54:54;;;;;;;4.88;3.35;;;;;;;19.16;68.62;100253.59;3139331;28;20044;-64
2022/09/05 01:56:38;;;;;;;7.55;3.78;;;;;;;19.15;68.79;100259.00;3133495;28;20048;-64
2022/09/05 01:58:17;;;;;;;6.43;3.97;;;;;;;19.14;68.70;100255.53;3134372;28;20116;-64
2022/09/05 01:59:57;;;;;;;7.82;3.65;;;;;;;19.15;68.70;100265.13;3139433;28;20122;-64
2022/09/05 02:01:44;;;;;;;7.18;3.83;;;;;;;19.14;68.70;100263.44;3139337;28;20129;-64
2022/09/05 02:03:24;;;;;;;6.75;3.50;;;;;;;19.16;68.57;100264.16;3138850;28;20525;-64
2022/09/05 02:05:25;;;;;;;7.55;3.20;;;;;;;19.18;68.69;100266.69;3139091;28;20801;-65
2022/09/05 02:07:05;;;;;;;5.53;3.28;;;;;;;19.16;68.54;100264.16;3129516;28;20136;-64
2022/09/05 02:08:54;;;;;;;7.20;3.35;;;;;;;19.21;68.64;100262.03;3141625;28;20086;-65
2022/09/05 02:10:53;;;;;;;4.95;3.20;;;;;;;19.22;68.35;100258.41;3141716;28;20071;-64
2022/09/05 02:12:32;;;;;;;4.97;3.00;;;;;;;19.18;68.58;100259.59;3141802;28;20109;-65
2022/09/05 02:14:18;;;;;;;7.18;3.65;;;;;;;19.16;68.82;100258.88;3141365;28;20052;-65
2022/09/05 02:16:00;;;;;;;5.82;3.60;;;;;;;19.13;68.98;100259.09;3140957;28;20060;-66
2022/09/05 02:17:45;;;;;;;6.30;3.20;;;;;;;19.17;68.75;100263.22;3141430;28;20078;-66
2022/09/05 02:19:25;;;;;;;6.20;3.30;;;;;;;19.19;68.58;100261.28;3141353;28;20048;-65
2022/09/05 02:20:59;;;;;;;8.88;3.80;;;;;;;19.23;68.65;100262.75;3141093;28;20102;-65
2022/09/05 02:22:42;;;;;;;6.55;3.42;;;;;;;19.26;68.44;100273.09;3141340;28;20786;-65
2022/09/05 02:24:18;;;;;;;5.97;3.37;;;;;;;19.28;68.47;100271.16;3139808;28;20052;-65
2022/09/05 02:25:58;;;;;;;9.55;4.10;;;;;;;19.18;68.74;100259.59;3141492;28;20403;-64
2022/09/05 02:27:36;;;;;;;8.70;3.50;;;;;;;19.24;68.82;100277.63;3141648;28;20060;-64
2022/09/05 02:29:15;;;;;;;5.40;3.85;;;;;;;19.28;68.92;100275.59;3141425;28;20052;-64
2022/09/05 02:30:53;;;;;;;10.65;4.07;;;;;;;19.27;68.71;100264.22;3141217;28;20605;-65
2022/09/05 02:32:51;;;;;;;12.35;3.70;;;;;;;19.29;68.79;100272.03;3142251;28;20083;-65
2022/09/05 02:34:34;;;;;;;7.63;3.75;;;;;;;19.31;68.42;100270.97;3141131;28;20110;-67
2022/09/05 02:36:11;;;;;;;7.75;3.60;;;;;;;19.32;68.37;100274.44;3141101;28;20438;-66
2022/09/05 02:37:48;;;;;;;5.80;3.70;;;;;;;19.30;68.33;100266.63;3141350;28;20109;-65
2022/09/05 02:39:34;;;;;;;6.85;3.70;;;;;;;19.19;68.63;100258.66;3141478;28;20056;-66
2022/09/05 02:41:18;;;;;;;8.30;4.13;;;;;;;19.22;68.63;100268.97;3141083;28;20054;-65
2022/09/05 02:42:56;;;;;;;5.72;3.38;;;;;;;19.18;68.89;100270.16;3141036;28;20057;-65
2022/09/05 02:44:36;;;;;;;7.57;3.80;;;;;;;19.15;68.86;100264.28;3141116;28;20059;-65
2022/09/05 02:46:15;;;;;;;8.52;3.95;;;;;;;19.12;69.09;100278.53;3141086;28;20048;-64
2022/09/05 02:47:55;;;;;;;5.07;3.42;;;;;;;19.09;69.08;100281.41;3141341;28;20049;-65
2022/09/05 02:49:42;;;;;;;6.28;3.30;;;;;;;19.03;69.35;100276.56;3141204;28;20441;-64
2022/09/05 02:51:20;;;;;;;8.88;3.38;;;;;;;18.99;69.70;100277.75;3140993;28;20555;-65
2022/09/05 02:52:52;;;;;;;7.40;3.28;;;;;;;18.99;69.66;100275.09;3140721;28;20052;-64
2022/09/05 02:54:28;;;;;;;6.30;3.88;;;;;;;18.97;69.67;100277.88;3141256;28;20074;-66
2022/09/05 02:56:25;;;;;;;6.03;4.30;;;;;;;18.94;70.12;100277.25;3141060;28;20868;-66
2022/09/05 02:58:13;;;;;;;7.85;4.22;;;;;;;18.94;70.21;100277.25;3135146;28;20048;-66
2022/09/05 03:00:02;;;;;;;8.00;3.70;;;;;;;18.93;70.32;100281.69;3136251;28;20106;-65
2022/09/05 03:02:01;;;;;;;6.85;4.10;;;;;;;18.91;70.51;100273.03;3141042;28;20060;-66
2022/09/05 03:03:40;;;;;;;8.90;4.10;;;;;;;18.90;70.47;100275.75;3141223;28;20056;-66
2022/09/05 03:05:17;;;;;;;11.77;4.57;;;;;;;18.89;70.52;100277.56;3140377;28;20200;-66
2022/09/05 03:07:06;;;;;;;5.95;4.43;;;;;;;18.90;70.60;100281.91;3141146;28;20049;-65
2022/09/05 03:09:03;;;;;;;8.75;4.97;;;;;;;18.91;70.90;100280.13;3137154;28;20048;-66
2022/09/05 03:11:13;;;;;;;7.72;3.90;;;;;;;18.90;70.96;100281.03;3140922;28;20084;-65
2022/09/05 03:13:33;;;;;;;6.47;4.18;;;;;;;18.94;70.79;100282.53;3104225;28;20059;-66
2022/09/05 03:15:35;;;;;;;7.95;4.80;;;;;;;18.95;70.76;100282.41;3115858;28;20045;-67
2022/09/05 03:17:41;;;;;;;7.38;4.63;;;;;;;18.96;70.58;100289.38;3135500;28;20048;-65
2022/09/05 03:19:48;;;;;;;9.65;4.75;;;;;;;18.96;70.86;100291.16;3139061;28;20135;-65
2022/09/05 03:21:56;;;;;;;9.02;4.85;;;;;;;18.94;70.62;100287.81;3117186;28;20061;-67
2022/09/05 03:24:17;;;;;;;12.43;5.30;;;;;;;18.92;70.80;100289.69;3135301;28;20445;-65
2022/09/05 03:26:34;;;;;;;6.57;3.92;;;;;;;18.93;70.98;100291.38;3140803;28;20052;-66
2022/09/05 03:28:36;;;;;;;10.70;5.13;;;;;;;18.89;70.84;100289.94;3140379;28;20056;-66
2022/09/05 03:30:14;;;;;;;8.80;4.88;;;;;;;18.90;71.08;100288.97;3136118;28;20044;-65
2022/09/05 03:32:16;;;;;;;8.68;5.20;;;;;;;18.91;70.99;100304.69;3140564;28;20159;-64
2022/09/05 03:34:19;;;;;;;10.52;4.47;;;;;;;18.93;71.10;100299.28;3140688;28;20052;-64
2022/09/05 03:36:48;;;;;;;8.93;4.20;;;;;;;18.92;71.16;100298.47;3140505;28;20476;-65
2022/09/05 03:38:49;;;;;;;9.00;5.03;;;;;;;18.92;70.92;100302.91;3140149;28;20052;-66
2022/09/05 03:40:53;;;;;;;12.10;4.85;;;;;;;18.92;70.89;100301.09;3145532;28;20059;-65
2022/09/05 03:42:42;;;;;;;8.98;5.68;;;;;;;18.93;70.88;100302.81;3128081;28;20521;-65
2022/09/05 03:44:29;;;;;;;12.05;5.40;;;;;;;18.97;70.99;100300.78;3145546;28;20072;-66
2022/09/05 03:46:11;;;;;;;10.13;5.43;;;;;;;18.96;70.78;100299.94;3147787;28;20057;-65
2022/09/05 03:48:12;;;;;;;11.90;5.70;;;;;;;18.97;70.97;100306.06;3145441;28;20132;-66
2022/09/05 03:50:28;;;;;;;12.73;5.55;;;;;;;18.96;70.89;100305.22;3141826;28;20044;-66
2022/09/05 03:52:09;;;;;;;14.20;5.32;;;;;;;18.95;70.79;100305.31;3096954;28;20570;-65
2022/09/05 03:54:04;;;;;;;10.20;5.45;;;;;;;18.94;70.97;100307.13;3144702;28;20048;-65
2022/09/05 03:55:53;;;;;;;11.85;5.55;;;;;;;18.98;70.86;100307.72;3145520;28;20056;-65
2022/09/05 03:57:50;;;;;;;16.30;5.75;;;;;;;19.00;70.98;100316.41;3145242;28;20048;-65
2022/09/05 03:59:57;;;;;;;7.78;4.85;;;;;;;18.99;70.98;100309.41;3145568;28;20063;-65
2022/09/05 04:01:34;;;;;;;17.27;6.40;;;;;;;18.98;70.66;100310.38;3144523;28;20045;-65
2022/09/05 04:03:15;;;;;;;9.88;5.32;;;;;;;19.00;70.99;100319.88;3145212;28;20533;-65
2022/09/05 04:04:54;;;;;;;9.52;5.30;;;;;;;19.00;70.83;100324.31;3145228;28;20048;-65
2022/09/05 04:06:34;;;;;;;10.05;6.35;;;;;;;19.00;70.71;100321.66;3145261;28;20497;-65
2022/09/05 04:08:12;;;;;;;9.75;5.80;;;;;;;19.00;70.70;100329.59;3144836;28;20055;-66
2022/09/05 04:09:48;;;;;;;12.68;5.55;;;;;;;18.97;70.54;100322.72;3145223;28;20075;-65
2022/09/05 04:11:32;;;;;;;11.20;4.97;;;;;;;18.95;70.78;100326.44;3145659;28;20074;-65
2022/09/05 04:13:08;;;;;;;12.40;6.13;;;;;;;18.95;70.84;100326.44;3145237;28;20052;-65
2022/09/05 04:14:46;;;;;;;9.55;5.32;;;;;;;18.95;70.60;100326.44;3145117;28;20052;-65
2022/09/05 04:16:22;;;;;;;11.38;4.65;;;;;;;18.96;70.56;100330.75;3144980;28;20056;-65
2022/09/05 04:17:58;;;;;;;10.23;5.32;;;;;;;18.97;70.57;100332.44;3145033;28;20045;-65
2022/09/05 04:19:37;;;;;;;8.98;4.97;;;;;;;18.98;70.40;100336.75;3145479;28;20052;-65
2022/09/05 04:21:15;;;;;;;7.60;4.57;;;;;;;18.98;70.51;100344.69;3145260;28;20045;-65
2022/09/05 04:23:05;;;;;;;12.80;5.50;;;;;;;18.98;70.40;100337.59;3145062;28;20055;-65
2022/09/05 04:24:47;;;;;;;9.90;5.00;;;;;;;19.00;70.29;100338.34;3145000;28;20519;-65
2022/09/05 04:26:38;;;;;;;8.60;4.70;;;;;;;19.02;70.18;100338.25;3145223;28;20052;-65
2022/09/05 04:28:22;;;;;;;10.68;5.20;;;;;;;19.02;69.93;100354.94;3138668;28;20414;-65
2022/09/05 04:29:59;;;;;;;12.27;6.20;;;;;;;19.01;70.02;100341.81;3139114;28;20044;-65
2022/09/05 04:31:43;;;;;;;10.98;5.25;;;;;;;19.04;69.85;100353.00;3138896;28;20048;-65
2022/09/05 04:33:19;;;;;;;;;;;;;;;18.98;69.72;100353.44;3140324;28;20083;-65
2022/09/05 04:35:07;;;;;;;12.75;4.05;;;;;;;18.97;70.01;100353.56;3145111;28;19931;-65
2022/09/05 04:36:41;;;;;;;11.95;4.43;;;;;;;18.91;69.37;100341.66;3143951;28;20052;-65
2022/09/05 04:38:16;;;;;;;8.02;4.35;;;;;;;18.98;69.49;100355.25;3144632;28;20150;-65
2022/09/05 04:39:48;;;;;;;9.23;4.40;;;;;;;18.98;69.15;100363.16;3145107;28;20055;-65
2022/09/05 04:41:23;;;;;;;7.53;4.15;;;;;;;18.98;69.18;100360.53;3144844;28;20052;-65
2022/09/05 04:42:57;;;;;;;10.20;4.45;;;;;;;18.98;69.12;100364.00;3146335;28;20105;-65
2022/09/05 04:44:33;;;;;;;12.93;4.18;;;;;;;19.00;68.84;100364.75;3145355;28;20102;-65
2022/09/05 04:46:22;;;;;;;13.90;4.07;;;;;;;19.00;68.68;100366.53;3144465;28;20055;-65
2022/09/05 04:48:00;;;;;;;7.95;4.28;;;;;;;18.96;68.81;100362.41;3144977;28;20045;-65
2022/09/05 04:49:36;;;;;;;9.50;4.47;;;;;;;19.03;68.76;100374.25;3138539;28;20088;-65
2022/09/05 04:51:09;;;;;;;7.28;3.42;;;;;;;19.05;68.73;100378.47;3144950;28;20044;-64
2022/09/05 04:53:00;;;;;;;;;;;;;;;19.03;68.44;100374.25;3145250;28;20414;-64
2022/09/05 04:54:41;;;;;;;9.52;4.07;;;;;;;19.02;68.54;100372.56;3139338;28;19920;-64
2022/09/05 04:56:17;;;;;;;7.30;4.38;;;;;;;19.02;68.13;100370.75;3139209;28;20052;-64
2022/09/05 04:57:57;;;;;;;6.20;3.70;;;;;;;19.04;68.19;100375.91;3144941;28;20055;-64
2022/09/05 04:59:36;;;;;;;8.85;4.63;;;;;;;19.04;68.19;100370.63;3142520;28;20049;-65
2022/09/05 05:01:15;;;;;;;8.32;3.80;;;;;;;19.06;68.30;100380.13;3139315;28;20127;-65
2022/09/05 05:02:48;;;;;;;8.85;3.63;;;;;;;19.10;68.45;100376.31;3144830;28;20048;-64
2022/09/05 05:04:23;;;;;;;;;;;;;;;19.10;68.30;100381.59;3144632;28;20048;-65
2022/09/05 05:05:59;;;;;;;6.18;3.80;;;;;;;19.07;67.91;100371.25;3142434;28;19946;-64
2022/09/05 05:07:40;;;;;;;8.57;3.80;;;;;;;19.16;67.92;100387.41;3145106;28;20048;-65
2022/09/05 05:09:20;;;;;;;7.68;4.20;;;;;;;19.19;68.00;100387.19;3142635;28;20053;-65
2022/09/05 05:10:57;;;;;;;10.77;3.90;;;;;;;19.20;67.64;100384.44;3138215;28;20053;-66
2022/09/05 05:12:43;;;;;;;8.52;3.97;;;;;;;19.20;67.35;100389.72;3144500;28;20049;-65
2022/09/05 05:14:21;;;;;;;9.85;3.72;;;;;;;19.17;67.32;100375.91;3144782;28;20052;-65
2022/09/05 05:15:57;;;;;;;8.10;4.15;;;;;;;19.21;67.19;100385.28;3144717;28;20474;-65
2022/09/05 05:17:34;;;;;;;9.90;4.22;;;;;;;19.20;66.88;100388.88;3143696;28;20044;-65
2022/09/05 05:19:14;;;;;;;4.78;3.42;;;;;;;19.19;66.89;100390.66;3144541;28;20049;-65
2022/09/05 05:20:53;;;;;;;13.18;3.90;;;;;;;19.22;66.67;100393.06;3144575;28;20048;-65
2022/09/05 05:22:25;;;;;;;9.75;3.15;;;;;;;19.25;66.36;100397.28;3142280;28;20506;-64
2022/09/05 05:24:00;;;;;;;7.32;3.28;;;;;;;19.26;66.52;100394.56;3144546;28;20044;-65
2022/09/05 05:25:39;;;;;;;13.02;3.80;;;;;;;19.29;66.47;100398.78;3144648;28;20055;-65
2022/09/05 05:27:22;;;;;;;7.45;3.92;;;;;;;19.31;66.22;100400.38;3144644;28;20080;-65
2022/09/05 05:28:59;;;;;;;9.00;3.42;;;;;;;19.35;66.18;100397.50;3139664;28;20048;-65
2022/09/05 05:30:32;;;;;;;8.88;3.55;;;;;;;19.35;66.10;100403.63;3144720;28;20049;-65
2022/09/05 05:32:06;;;;;;;4.60;3.35;;;;;;;19.37;65.77;100399.06;3144535;28;20052;-65
2022/09/05 05:33:40;;;;;;;6.72;3.03;;;;;;;19.40;65.85;100396.19;3144662;28;20068;-65
2022/09/05 05:35:12;;;;;;;;;;;;;;;19.37;65.79;100396.41;3145090;28;20497;-65
2022/09/05 05:36:51;;;;;;;8.93;3.42;;;;;;;19.39;65.51;100398.94;3144856;28;19924;-65
2022/09/05 05:38:31;;;;;;;10.40;4.05;;;;;;;19.40;65.31;100400.63;3147295;28;20516;-65
2022/09/05 05:40:10;;;;;;;5.65;3.78;;;;;;;19.45;65.17;100406.44;3144630;28;20073;-65
2022/09/05 05:41:47;;;;;;;7.28;3.38;;;;;;;19.48;64.87;100404.41;3142210;28;20056;-65
2022/09/05 05:43:34;;;;;;;6.93;3.30;;;;;;;19.55;64.65;100407.44;3146880;28;20053;-65
2022/09/05 05:45:15;;;;;;;9.00;2.92;;;;;;;19.54;64.36;100400.47;3147092;28;20056;-64
2022/09/05 05:46:57;;;;;;;5.70;2.83;;;;;;;19.60;64.12;100402.66;3147089;28;20044;-64
2022/09/05 05:48:34;;;;;;;6.95;3.40;;;;;;;19.61;63.76;100404.38;3146933;28;20044;-65
2022/09/05 05:50:17;;;;;;;7.00;3.13;;;;;;;19.67;63.68;100414.53;3146848;28;20041;-64
2022/09/05 05:52:05;;;;;;;8.25;3.15;;;;;;;19.68;63.23;100410.91;3147121;28;20055;-64
2022/09/05 05:53:48;;;;;;;7.15;3.33;;;;;;;19.71;62.96;100415.97;3146672;28;20052;-64
2022/09/05 05:56:13;;;;;;;6.57;3.70;;;;;;;19.72;62.69;100417.66;3145782;28;20059;-64
2022/09/05 05:58:07;;;;;;;5.55;3.05;;;;;;;19.78;62.63;100419.84;3125988;28;20063;-64
2022/09/05 06:00:00;;;;;;;8.07;3.10;;;;;;;19.78;62.22;100417.19;3144202;28;20044;-64
2022/09/05 06:02:19;;;;;;;7.45;3.35;;;;;;;19.83;62.28;100427.44;3146953;28;20056;-64
2022/09/05 06:04:15;;;;;;;7.28;3.15;;;;;;;19.86;62.27;100421.09;3146899;28;20048;-65
2022/09/05 06:06:05;;;;;;;5.40;3.20;;;;;;;19.91;62.26;100426.88;3146816;28;20063;-65
2022/09/05 06:07:51;;;;;;;6.05;3.50;;;;;;;19.93;61.96;100427.59;3146193;28;20507;-65
2022/09/05 06:10:06;;;;;;;7.43;3.38;;;;;;;19.93;61.73;100428.44;3146734;28;20056;-65
2022/09/05 06:12:15;;;;;;;5.50;2.58;;;;;;;19.98;61.75;100422.81;3140238;28;20124;-66
2022/09/05 06:14:21;;;;;;;6.85;3.10;;;;;;;20.09;61.78;100427.31;3123336;28;20081;-64
2022/09/05 06:16:21;;;;;;;6.40;3.08;;;;;;;20.18;61.13;100429.25;3146560;28;20048;-65
2022/09/05 06:18:17;;;;;;;10.02;3.05;;;;;;;20.21;60.95;100426.38;3146629;28;20102;-65
2022/09/05 06:20:28;;;;;;;5.07;3.30;;;;;;;20.22;60.48;100431.53;3140608;28;20048;-65
2022/09/05 06:22:34;;;;;;;11.05;4.13;;;;;;;20.26;60.67;100429.53;3144821;28;20705;-65
2022/09/05 06:24:52;;;;;;;10.70;3.08;;;;;;;20.30;60.51;100436.25;3146554;28;20556;-65
2022/09/05 06:26:51;;;;;;;8.00;3.17;;;;;;;20.31;60.34;100437.09;3135123;28;20726;-65
2022/09/05 06:28:32;;;;;;;8.75;2.90;;;;;;;20.27;60.13;100427.72;3143286;28;20528;-64
2022/09/05 06:30:07;;;;;;;7.15;2.83;;;;;;;20.34;60.34;100436.88;3146259;28;20492;-63
2022/09/05 06:31:56;;;;;;;7.28;3.30;;;;;;;20.37;60.27;100444.56;3146512;28;20324;-61
2022/09/05 06:33:46;;;;;;;10.13;3.42;;;;;;;20.42;60.08;100440.63;3146621;28;20144;-61
2022/09/05 06:35:37;;;;;;;12.93;3.28;;;;;;;20.48;59.99;100441.94;3152428;28;20449;-60
2022/09/05 06:37:23;;;;;;;8.18;3.30;;;;;;;20.57;60.17;100438.63;3140689;28;20417;-61
2022/09/05 06:39:05;;;;;;;10.00;3.00;;;;;;;20.65;60.11;100438.06;3141331;28;20041;-61
2022/09/05 06:40:47;;;;;;;7.82;4.05;;;;;;;20.70;59.73;100441.16;3140961;28;20430;-63
2022/09/05 06:42:28;;;;;;;13.18;7.38;;;;;;;20.78;59.42;100435.28;3139590;28;20169;-63
2022/09/05 06:44:21;;;;;;;8.23;3.53;;;;;;;20.79;59.35;100423.72;3130947;28;20052;-63
2022/09/05 06:46:19;;;;;;;12.75;5.22;;;;;;;20.96;58.97;100440.94;3134260;28;20048;-62
2022/09/05 06:47:59;;;;;;;9.05;4.57;;;;;;;21.02;58.35;100440.47;3129500;28;20103;-62
2022/09/05 06:49:46;;;;;;;10.48;3.08;;;;;;;21.10;58.25;100444.19;3141358;28;20052;-62
2022/09/05 06:51:55;;;;;;;5.57;2.88;;;;;;;21.19;57.74;100452.38;3141249;28;20055;-63
2022/09/05 06:54:02;;;;;;;5.70;2.92;;;;;;;21.21;57.58;100450.44;3136615;28;20106;-63
2022/09/05 06:55:59;;;;;;;6.20;3.10;;;;;;;21.24;57.03;100461.66;3135813;28;20064;-64
2022/09/05 06:57:59;;;;;;;17.52;6.93;;;;;;;21.29;57.06;100451.50;3138401;28;20082;-68
2022/09/05 07:00:00;;;;;;;11.57;4.50;;;;;;;21.39;57.09;100451.69;3137240;28;20052;-65
2022/09/05 07:01:37;;;;;;;15.23;8.68;;;;;;;21.45;57.12;100439.75;3141033;28;20052;-64
2022/09/05 07:03:29;;;;;;;7.90;3.30;;;;;;;21.61;56.10;100442.81;3140747;28;20051;-63
2022/09/05 07:05:23;;;;;;;;;;;;;;;;;;;;;
2022/09/05 07:07:06;;;;;;;4.78;3.13;;;;;;;21.81;55.39;100457.13;3142907;28;20082;-63
2022/09/05 07:08:50;;;;;;;9.23;3.20;;;;;;;21.91;55.46;100457.19;3145242;28;20044;-62
2022/09/05 07:10:28;;;;;;;9.77;3.38;;;;;;;22.04;55.58;100455.22;3141070;28;20048;-63
2022/09/05 07:12:14;;;;;;;6.15;2.60;;;;;;;22.19;55.11;100453.97;3135172;28;20510;-63
2022/09/05 07:13:56;;;;;;;7.25;2.85;;;;;;;22.39;55.03;100451.44;3145019;28;20393;-62
2022/09/05 07:15:38;;;;;;;6.45;2.67;;;;;;;22.56;54.73;100450.88;3145368;28;20489;-62
2022/09/05 07:17:14;;;;;;;5.43;2.72;;;;;;;22.68;54.13;100459.59;3145290;28;20088;-63
2022/09/05 07:18:58;;;;;;;4.75;2.72;;;;;;;22.81;53.61;100457.59;3144983;28;20476;-62
2022/09/05 07:20:35;;;;;;;8.75;2.83;;;;;;;23.02;53.07;100462.06;3144644;28;20052;-61
2022/09/05 07:22:17;;;;;;;5.88;2.85;;;;;;;23.21;52.23;100458.63;3144860;28;20438;-63
2022/09/05 07:23:58;;;;;;;4.35;2.30;;;;;;;23.42;52.12;100453.22;3144921;28;20405;-61
2022/09/05 07:25:32;;;;;;;9.40;2.60;;;;;;;23.59;50.72;100458.72;3142433;28;20052;-61
2022/09/05 07:27:07;;;;;;;5.47;3.05;;;;;;;23.75;49.99;100452.03;3139740;28;21070;-62
2022/09/05 07:28:43;;;;;;;7.28;3.08;;;;;;;23.96;50.22;100451.91;3144042;28;20500;-60
2022/09/05 07:30:18;;;;;;;3.45;2.42;;;;;;;24.26;49.76;100453.63;3142947;28;20135;-60
2022/09/05 07:31:52;;;;;;;4.63;2.67;;;;;;;24.56;49.47;100457.09;3141806;28;20494;-61
2022/09/05 07:33:27;;;;;;;4.82;2.78;;;;;;;24.82;48.59;100450.16;3140102;28;20079;-61
2022/09/05 07:35:04;;;;;;;6.22;2.78;;;;;;;25.07;48.38;100453.13;3145269;28;20621;-60
2022/09/05 07:36:40;;;;;;;4.00;2.40;;;;;;;25.19;47.97;100452.81;3145258;28;20056;-61
2022/09/05 07:38:15;;;;;;;6.93;2.83;;;;;;;25.41;47.13;100454.25;3145456;28;20127;-62
2022/09/05 07:39:53;;;;;;;13.25;3.08;;;;;;;25.64;46.85;100457.34;3145298;28;20051;-61
2022/09/05 07:41:27;;;;;;;7.35;2.80;;;;;;;25.86;46.05;100452.59;3145368;28;20121;-62
2022/09/05 07:43:06;;;;;;;5.47;2.30;;;;;;;26.06;45.83;100445.28;3145423;28;20756;-62
2022/09/05 07:44:45;;;;;;;3.78;2.35;;;;;;;26.23;44.84;100448.88;3144976;28;20606;-62
2022/09/05 07:46:22;;;;;;;3.40;2.40;;;;;;;26.28;43.91;100449.28;3145017;28;20071;-62
2022/09/05 07:48:00;;;;;;;3.75;2.22;;;;;;;26.15;44.08;100441.69;3145646;28;20048;-63
2022/09/05 07:49:33;;;;;;;6.47;2.10;;;;;;;26.17;43.50;100450.34;3145162;28;20045;-62
2022/09/05 07:51:09;;;;;;;4.35;2.53;;;;;;;26.23;43.65;100454.22;3144081;28;20377;-62
2022/09/05 07:52:43;;;;;;;6.40;2.30;;;;;;;26.13;43.52;100446.31;3139863;28;20052;-62
2022/09/05 07:54:22;;;;;;;4.22;3.08;;;;;;;25.92;43.61;100432.47;3144698;28;20503;-63
2022/09/05 07:55:57;;;;;;;5.55;2.65;;;;;;;25.81;43.93;100446.84;3145557;28;20047;-63
2022/09/05 07:57:36;;;;;;;9.05;2.55;;;;;;;25.72;44.11;100447.75;3145256;28;20089;-64
2022/09/05 07:59:11;;;;;;;6.03;2.42;;;;;;;25.64;44.47;100441.34;3145241;28;20056;-63
2022/09/05 08:00:50;;;;;;;5.97;2.70;;;;;;;25.62;44.23;100443.31;3142864;28;20048;-63
2022/09/05 08:02:22;;;;;;;7.75;3.08;;;;;;;25.59;44.45;100443.63;3141281;28;20417;-63
2022/09/05 08:03:56;;;;;;;12.18;3.10;;;;;;;25.42;44.15;100423.94;3144231;28;20418;-64
2022/09/05 08:05:36;;;;;;;8.77;2.92;;;;;;;25.54;44.48;100443.22;3144033;28;20095;-62
2022/09/05 08:07:12;;;;;;;6.85;3.58;;;;;;;25.50;44.21;100444.53;3144760;28;20045;-62
2022/09/05 08:08:52;;;;;;;5.18;3.20;;;;;;;25.43;44.44;100441.59;3144410;28;20425;-63